Time;durP1;ratioP1;P1;durP2;ratioP2;P2;SDS_P1;SDS_P2;PMS_P1;PMS_P2;Temp;Humidity;BMP_temperature;BMP_pressure;BME280_temperature;BME280_humidity;BME280_pressure;Samples;Min_cycle;Max_cycle;Signal;HPM_P1;HPM_P2
2023/04/12 00:00:09;;;;;;;1.50;1.40;;;22.60;51.10;;;;;;5030277;28;20455;-76
2023/04/12 00:02:38;;;;;;;1.40;1.30;;;22.70;51.10;;;;;;5026586;28;20856;-76
2023/04/12 00:05:10;;;;;;;1.67;1.30;;;22.60;51.20;;;;;;5023590;28;20536;-74
2023/04/12 00:07:41;;;;;;;1.23;1.13;;;22.60;51.20;;;;;;5031551;28;20529;-74
2023/04/12 00:10:10;;;;;;;1.60;1.50;;;22.60;51.20;;;;;;5031536;28;20960;-75
2023/04/12 00:12:39;;;;;;;1.80;1.33;;;22.60;51.20;;;;;;5026677;28;20551;-74
2023/04/12 00:15:08;;;;;;;1.20;1.10;;;22.60;51.20;;;;;;5019929;28;20459;-74
2023/04/12 00:17:37;;;;;;;1.23;1.17;;;22.60;51.30;;;;;;5030914;28;20558;-74
2023/04/12 00:20:11;;;;;;;1.20;1.10;;;22.60;51.30;;;;;;5028270;28;20477;-74
2023/04/12 00:22:40;;;;;;;1.20;1.20;;;22.60;51.30;;;;;;5030830;28;20459;-74
2023/04/12 00:25:09;;;;;;;1.57;1.47;;;22.60;51.30;;;;;;5016566;28;20529;-74
2023/04/12 00:27:37;;;;;;;1.40;1.30;;;22.60;51.30;;;;;;5031014;28;20459;-74
2023/04/12 00:30:07;;;;;;;1.43;1.33;;;22.50;51.40;;;;;;5029856;28;20485;-74
2023/04/12 00:32:35;;;;;;;1.17;1.10;;;22.50;51.40;;;;;;5031372;28;20500;-75
2023/04/12 00:35:04;;;;;;;1.30;1.20;;;22.50;51.40;;;;;;5031028;28;20447;-74
2023/04/12 00:37:35;;;;;;;1.13;1.07;;;22.50;51.40;;;;;;5031135;28;20552;-77
2023/04/12 00:40:05;;;;;;;1.17;1.17;;;22.50;51.40;;;;;;5031377;28;20451;-75
2023/04/12 00:42:34;;;;;;;1.30;1.30;;;22.50;51.40;;;;;;5013183;28;20615;-74
2023/04/12 00:45:03;;;;;;;1.00;1.00;;;22.50;51.40;;;;;;5029928;28;21344;-76
2023/04/12 00:47:31;;;;;;;2.00;0.97;;;22.50;51.40;;;;;;5031036;28;20481;-74
2023/04/12 00:49:59;;;;;;;1.37;1.30;;;22.50;51.40;;;;;;5029886;28;20446;-74
2023/04/12 00:52:33;;;;;;;1.90;1.27;;;22.50;51.40;;;;;;5012645;28;20487;-74
2023/04/12 00:55:04;;;;;;;1.33;1.23;;;22.50;51.50;;;;;;5008947;28;20559;-74
2023/04/12 00:57:35;;;;;;;1.10;1.00;;;22.50;51.40;;;;;;5013093;28;21008;-73
2023/04/12 01:00:05;;;;;;;1.43;1.33;;;22.40;51.50;;;;;;5030328;28;20454;-74
2023/04/12 01:02:34;;;;;;;1.50;1.40;;;22.40;51.50;;;;;;5031097;28;20993;-77
2023/04/12 01:05:03;;;;;;;1.47;1.37;;;22.40;51.50;;;;;;5030323;28;21053;-73
2023/04/12 01:07:43;;;;;;;1.47;1.37;;;22.40;51.50;;;;;;5031755;28;20450;-73
2023/04/12 01:10:27;;;;;;;1.50;1.40;;;22.40;51.50;;;;;;5030853;28;20515;-73
2023/04/12 01:13:08;;;;;;;1.30;1.20;;;22.40;51.50;;;;;;5007741;28;20559;-74
2023/04/12 01:15:41;;;;;;;1.60;1.50;;;22.40;51.50;;;;;;5027125;28;20493;-74
2023/04/12 01:18:16;;;;;;;1.27;1.17;;;22.40;51.50;;;;;;5029823;28;20512;-76
2023/04/12 01:20:51;;;;;;;1.30;1.20;;;22.40;51.60;;;;;;5012897;28;20463;-75
2023/04/12 01:23:41;;;;;;;2.10;1.90;;;22.40;51.60;;;;;;5007043;28;20464;-74
2023/04/12 01:26:24;;;;;;;1.30;1.20;;;22.40;51.60;;;;;;5008925;28;20509;-74
2023/04/12 01:28:56;;;;;;;1.30;1.20;;;22.40;51.60;;;;;;5029866;28;20492;-77
2023/04/12 01:31:29;;;;;;;1.77;1.63;;;22.40;51.60;;;;;;5031336;28;20493;-77
2023/04/12 01:33:59;;;;;;;1.50;1.40;;;22.40;51.60;;;;;;5020980;28;20459;-74
2023/04/12 01:36:29;;;;;;;1.50;1.30;;;22.40;51.60;;;;;;5012869;28;21022;-74
2023/04/12 01:38:58;;;;;;;1.20;1.10;;;22.40;51.60;;;;;;5012940;28;21033;-74
2023/04/12 01:41:26;;;;;;;1.77;1.43;;;22.30;51.60;;;;;;5012542;28;20451;-75
2023/04/12 01:43:56;;;;;;;1.10;1.10;;;22.30;51.60;;;;;;5018212;28;20470;-74
2023/04/12 01:46:24;;;;;;;1.37;1.27;;;22.30;51.60;;;;;;5028206;28;20462;-75
2023/04/12 01:48:54;;;;;;;1.10;1.10;;;22.30;51.60;;;;;;5011523;28;20494;-75
2023/04/12 01:51:33;;;;;;;1.13;1.13;;;22.30;51.60;;;;;;5030387;28;20455;-75
2023/04/12 01:54:10;;;;;;;1.20;1.10;;;22.30;51.60;;;;;;5030075;28;20447;-76
2023/04/12 01:56:41;;;;;;;1.67;1.57;;;22.30;51.60;;;;;;5015050;28;20952;-74
2023/04/12 01:59:14;;;;;;;1.73;1.20;;;22.30;51.60;;;;;;5005847;28;20482;-74
2023/04/12 02:01:44;;;;;;;1.73;1.27;;;22.30;51.60;;;;;;5028285;28;20442;-74
2023/04/12 02:04:13;;;;;;;2.07;1.30;;;22.30;51.60;;;;;;5014358;28;20525;-74
2023/04/12 02:06:42;;;;;;;1.40;1.30;;;22.30;51.60;;;;;;5034187;28;20470;-74
2023/04/12 02:09:10;;;;;;;1.73;1.37;;;22.30;51.60;;;;;;5016134;28;20467;-74
2023/04/12 02:11:38;;;;;;;1.17;1.17;;;22.30;51.60;;;;;;5016018;28;20990;-74
2023/04/12 02:14:06;;;;;;;1.23;1.23;;;22.30;51.60;;;;;;5028552;28;20470;-74
2023/04/12 02:16:36;;;;;;;1.37;1.27;;;22.30;51.60;;;;;;5033370;28;20499;-73
2023/04/12 02:19:07;;;;;;;1.40;1.30;;;22.30;51.60;;;;;;5017679;28;20475;-74
2023/04/12 02:21:41;;;;;;;1.13;1.10;;;22.30;51.60;;;;;;5015281;28;20524;-74
2023/04/12 02:24:10;;;;;;;1.33;1.23;;;22.30;51.60;;;;;;5033763;28;20585;-74
2023/04/12 02:26:38;;;;;;;2.70;1.23;;;22.30;51.60;;;;;;5032597;28;20438;-74
2023/04/12 02:29:10;;;;;;;1.90;1.33;;;22.30;51.60;;;;;;5002782;28;20456;-74
2023/04/12 02:31:40;;;;;;;1.30;1.20;;;22.30;51.60;;;;;;5000604;28;20479;-74
2023/04/12 02:34:12;;;;;;;1.60;1.50;;;22.20;51.60;;;;;;5015437;28;20455;-74
2023/04/12 02:36:47;;;;;;;1.37;1.27;;;22.20;51.60;;;;;;5016014;28;20471;-73
2023/04/12 02:39:17;;;;;;;1.20;1.20;;;22.20;51.60;;;;;;5033578;28;20493;-74
2023/04/12 02:41:47;;;;;;;1.40;1.30;;;22.20;51.60;;;;;;5014861;28;20829;-74
2023/04/12 02:44:16;;;;;;;1.50;1.40;;;22.20;51.60;;;;;;5014823;28;20550;-74
2023/04/12 02:46:55;;;;;;;1.00;1.00;;;22.20;51.60;;;;;;5012960;28;20859;-75
2023/04/12 02:49:23;;;;;;;1.90;1.27;;;22.20;51.70;;;;;;5000715;28;20460;-75
2023/04/12 02:51:52;;;;;;;1.80;1.70;;;22.20;51.60;;;;;;5015820;28;20492;-76
2023/04/12 02:54:25;;;;;;;1.40;1.30;;;22.20;51.70;;;;;;5014826;28;20454;-74
2023/04/12 02:56:55;;;;;;;2.07;1.90;;;22.20;51.70;;;;;;5015083;28;20463;-74
2023/04/12 02:59:43;;;;;;;1.10;1.10;;;22.20;51.70;;;;;;5031989;28;20482;-74
2023/04/12 03:02:25;;;;;;;1.63;1.53;;;22.20;51.70;;;;;;5015740;28;20984;-75
2023/04/12 03:04:59;;;;;;;1.77;1.67;;;22.20;51.70;;;;;;5015000;28;20543;-74
2023/04/12 03:07:36;;;;;;;1.13;1.10;;;22.20;51.70;;;;;;5001898;28;20462;-74
2023/04/12 03:10:08;;;;;;;1.57;1.37;;;22.20;51.70;;;;;;5015368;28;20949;-74
2023/04/12 03:12:41;;;;;;;1.20;1.10;;;22.20;51.70;;;;;;5002175;28;20522;-74
2023/04/12 03:15:22;;;;;;;1.33;1.13;;;22.20;51.70;;;;;;5018495;28;20458;-75
2023/04/12 03:17:53;;;;;;;1.20;1.10;;;22.20;51.70;;;;;;5033356;28;20505;-75
2023/04/12 03:20:27;;;;;;;1.10;1.10;;;22.10;51.70;;;;;;5001113;28;20562;-74
2023/04/12 03:23:07;;;;;;;1.53;1.17;;;22.10;51.70;;;;;;5014570;28;20981;-75
2023/04/12 03:25:39;;;;;;;1.67;1.57;;;22.10;51.70;;;;;;5014868;28;20524;-73
2023/04/12 03:28:24;;;;;;;1.17;1.07;;;22.10;51.70;;;;;;5014131;28;20492;-79
2023/04/12 03:30:53;;;;;;;1.00;1.00;;;22.10;51.70;;;;;;5014598;28;20462;-75
2023/04/12 03:33:27;;;;;;;1.47;1.37;;;22.10;51.70;;;;;;5014248;28;20989;-76
2023/04/12 03:36:01;;;;;;;1.97;1.13;;;22.10;51.70;;;;;;5032572;28;20462;-74
2023/04/12 03:38:31;;;;;;;1.37;1.13;;;22.10;51.70;;;;;;5031874;28;20452;-75
2023/04/12 03:41:00;;;;;;;1.00;1.00;;;22.10;51.80;;;;;;5014589;28;20483;-74
2023/04/12 03:43:36;;;;;;;1.20;1.20;;;22.10;51.80;;;;;;5008642;28;20489;-74
2023/04/12 03:46:14;;;;;;;1.20;1.10;;;22.10;51.80;;;;;;5013832;28;20479;-74
2023/04/12 03:48:44;;;;;;;1.30;1.20;;;22.10;51.80;;;;;;5010414;28;20991;-74
2023/04/12 03:51:14;;;;;;;1.80;1.40;;;22.10;51.80;;;;;;5008216;28;20802;-74
2023/04/12 03:53:45;;;;;;;1.20;1.10;;;22.10;51.80;;;;;;4996065;28;20468;-76
2023/04/12 03:56:15;;;;;;;1.33;1.20;;;22.10;51.80;;;;;;5011975;28;20458;-78
2023/04/12 03:58:47;;;;;;;1.23;1.13;;;22.20;51.80;;;;;;5015075;28;20508;-74
2023/04/12 04:01:16;;;;;;;1.17;1.07;;;22.20;51.80;;;;;;5014301;28;20520;-75
2023/04/12 04:03:46;;;;;;;0.90;0.90;;;22.20;51.80;;;;;;5006885;28;20459;-74
2023/04/12 04:06:33;;;;;;;1.57;1.20;;;22.20;51.80;;;;;;5014260;28;20466;-74
2023/04/12 04:09:02;;;;;;;1.00;1.00;;;22.20;51.80;;;;;;5013706;28;20473;-74
2023/04/12 04:11:33;;;;;;;0.90;0.90;;;22.30;51.80;;;;;;5016670;28;20488;-73
2023/04/12 04:14:06;;;;;;;1.00;1.00;;;22.30;51.80;;;;;;5010217;28;20483;-79
2023/04/12 04:16:35;;;;;;;1.10;1.00;;;22.30;51.70;;;;;;5010044;28;20506;-74
2023/04/12 04:19:08;;;;;;;1.10;1.00;;;22.30;51.70;;;;;;5013700;28;20467;-77
2023/04/12 04:21:36;;;;;;;1.53;1.43;;;22.40;51.70;;;;;;5018952;28;20492;-74
2023/04/12 04:24:05;;;;;;;1.23;1.13;;;22.40;51.70;;;;;;5004388;28;20720;-76
2023/04/12 04:26:38;;;;;;;0.73;0.70;;;22.40;51.60;;;;;;5013702;28;20504;-74
2023/04/12 04:29:12;;;;;;;1.30;1.20;;;22.50;51.60;;;;;;5012561;28;20993;-74
2023/04/12 04:31:41;;;;;;;1.10;0.90;;;22.50;51.50;;;;;;5013497;28;20954;-76
2023/04/12 04:34:10;;;;;;;1.10;1.00;;;22.50;51.40;;;;;;5030865;28;20456;-74
2023/04/12 04:36:43;;;;;;;1.80;1.20;;;22.50;51.40;;;;;;5013804;28;20542;-74
2023/04/12 04:39:15;;;;;;;1.10;1.00;;;22.50;51.30;;;;;;5012948;28;20526;-74
2023/04/12 04:41:45;;;;;;;0.93;0.90;;;22.50;51.30;;;;;;5031665;28;20457;-77
2023/04/12 04:44:24;;;;;;;1.03;1.03;;;22.50;51.30;;;;;;5010922;28;20473;-76
2023/04/12 04:46:57;;;;;;;0.90;0.90;;;22.50;51.30;;;;;;4998525;28;20486;-75
2023/04/12 04:49:27;;;;;;;0.87;0.87;;;22.50;51.30;;;;;;5012916;28;20448;-74
2023/04/12 04:52:03;;;;;;;1.47;1.37;;;22.50;51.30;;;;;;5011636;28;20556;-74
2023/04/12 04:54:31;;;;;;;1.20;1.10;;;22.50;51.30;;;;;;5008590;28;20457;-74
2023/04/12 04:57:01;;;;;;;1.17;1.07;;;22.50;51.30;;;;;;5013507;28;20465;-74
2023/04/12 04:59:30;;;;;;;0.83;0.83;;;22.40;51.40;;;;;;5012375;28;20516;-74
2023/04/12 05:02:11;;;;;;;0.73;0.73;;;22.40;51.40;;;;;;5007649;28;20970;-74
2023/04/12 05:04:40;;;;;;;0.90;0.90;;;22.40;51.40;;;;;;5030594;28;20821;-75
2023/04/12 05:07:12;;;;;;;1.30;1.03;;;22.40;51.40;;;;;;5013332;28;20520;-74
2023/04/12 05:09:43;;;;;;;0.80;0.80;;;22.40;51.40;;;;;;5010337;28;20466;-74
2023/04/12 05:12:11;;;;;;;1.23;1.20;;;22.40;51.50;;;;;;5012973;28;20461;-74
2023/04/12 05:14:43;;;;;;;0.90;0.90;;;22.40;51.50;;;;;;5011065;28;20495;-75
2023/04/12 05:17:18;;;;;;;0.80;0.80;;;22.30;51.50;;;;;;5012253;28;20540;-74
2023/04/12 05:19:48;;;;;;;1.00;1.00;;;22.30;51.50;;;;;;5030190;28;20538;-74
2023/04/12 05:22:19;;;;;;;1.13;1.00;;;22.30;51.50;;;;;;5013030;28;20499;-74
2023/04/12 05:24:47;;;;;;;1.23;1.13;;;22.30;51.50;;;;;;5030627;28;20471;-74
2023/04/12 05:27:16;;;;;;;1.40;1.30;;;22.30;51.50;;;;;;5012756;28;20466;-76
2023/04/12 05:29:47;;;;;;;0.90;0.90;;;22.30;51.60;;;;;;5011951;28;20459;-74
2023/04/12 05:32:17;;;;;;;1.00;0.90;;;22.30;51.60;;;;;;5013452;28;20519;-74
2023/04/12 05:34:48;;;;;;;1.10;1.00;;;22.30;51.60;;;;;;5012375;28;20546;-74
2023/04/12 05:37:16;;;;;;;0.70;0.70;;;22.30;51.60;;;;;;5012870;28;20468;-74
2023/04/12 05:39:44;;;;;;;0.77;0.77;;;22.30;51.60;;;;;;5033551;28;20445;-74
2023/04/12 05:42:15;;;;;;;0.70;0.67;;;22.30;51.60;;;;;;5016588;28;20486;-77
2023/04/12 05:44:44;;;;;;;1.63;0.93;;;22.30;51.60;;;;;;5032274;28;20477;-74
2023/04/12 05:47:16;;;;;;;1.07;0.80;;;22.30;51.60;;;;;;5011014;28;20830;-74
2023/04/12 05:49:45;;;;;;;0.80;0.80;;;22.30;51.60;;;;;;5016338;28;20455;-74
2023/04/12 05:52:14;;;;;;;0.67;0.67;;;22.30;51.60;;;;;;5033917;28;20857;-75
2023/04/12 05:54:42;;;;;;;0.80;0.80;;;22.30;51.60;;;;;;5016318;28;20553;-73
2023/04/12 05:57:16;;;;;;;0.90;0.90;;;22.40;51.60;;;;;;5016268;28;20535;-75
2023/04/12 05:59:47;;;;;;;0.80;0.80;;;22.40;51.60;;;;;;5033460;28;20832;-74
2023/04/12 06:02:15;;;;;;;1.07;1.00;;;22.40;51.50;;;;;;5016171;28;20564;-76
2023/04/12 06:04:44;;;;;;;0.80;0.80;;;22.40;51.60;;;;;;5033789;28;20460;-76
2023/04/12 06:07:21;;;;;;;0.70;0.70;;;22.40;51.50;;;;;;5016870;28;20461;-74
2023/04/12 06:09:49;;;;;;;1.23;1.13;;;22.40;51.50;;;;;;5031437;28;20546;-76
2023/04/12 06:12:18;;;;;;;0.90;0.90;;;22.40;51.50;;;;;;5010127;28;20803;-73
2023/04/12 06:14:47;;;;;;;0.70;0.70;;;22.40;51.50;;;;;;5014459;28;20470;-74
2023/04/12 06:17:16;;;;;;;0.83;0.83;;;22.40;51.50;;;;;;5016013;28;20460;-75
2023/04/12 06:19:44;;;;;;;0.77;0.77;;;22.40;51.50;;;;;;5012764;28;20458;-75
2023/04/12 06:22:12;;;;;;;1.17;1.07;;;22.40;51.50;;;;;;5033063;28;21282;-76
2023/04/12 06:24:43;;;;;;;0.90;0.70;;;22.40;51.50;;;;;;5003072;28;20488;-74
2023/04/12 06:27:12;;;;;;;0.87;0.87;;;22.40;51.50;;;;;;5004868;28;20559;-74
2023/04/12 06:29:40;;;;;;;0.80;0.80;;;22.40;51.50;;;;;;5009322;28;20955;-75
2023/04/12 06:32:08;;;;;;;0.77;0.77;;;22.40;51.50;;;;;;5015588;28;20505;-74
2023/04/12 06:34:37;;;;;;;1.63;0.93;;;22.40;51.50;;;;;;5015321;28;20958;-79
2023/04/12 06:37:15;;;;;;;0.90;0.90;;;22.40;51.50;;;;;;5003878;28;20493;-74
2023/04/12 06:39:45;;;;;;;1.10;0.90;;;22.40;51.50;;;;;;5032269;28;20467;-74
2023/04/12 06:42:13;;;;;;;0.93;0.90;;;22.40;51.50;;;;;;5033076;28;20562;-74
2023/04/12 06:44:42;;;;;;;0.70;0.70;;;22.40;51.40;;;;;;5032541;28;20582;-75
2023/04/12 06:47:10;;;;;;;0.80;0.80;;;22.40;51.50;;;;;;5032436;28;20450;-76
2023/04/12 06:49:38;;;;;;;1.50;0.93;;;22.40;51.40;;;;;;5025320;28;20457;-74
2023/04/12 06:52:06;;;;;;;0.70;0.70;;;22.40;51.50;;;;;;5031834;28;20491;-75
2023/04/12 06:54:37;;;;;;;1.20;0.87;;;22.40;51.50;;;;;;5016104;28;20455;-75
2023/04/12 06:57:10;;;;;;;1.37;0.67;;;22.40;51.50;;;;;;5031885;28;20447;-75
2023/04/12 06:59:39;;;;;;;0.83;0.80;;;22.40;51.40;;;;;;5032052;28;20962;-75
2023/04/12 07:02:07;;;;;;;0.83;0.83;;;22.40;51.40;;;;;;5029793;28;20486;-74
2023/04/12 07:04:35;;;;;;;0.73;0.57;;;22.40;51.40;;;;;;5032931;28;20542;-75
2023/04/12 07:07:03;;;;;;;0.80;0.80;;;22.40;51.40;;;;;;5030774;28;20453;-74
2023/04/12 07:09:32;;;;;;;0.97;0.90;;;22.40;51.50;;;;;;5020610;28;20453;-74
2023/04/12 07:12:01;;;;;;;0.60;0.60;;;22.40;51.50;;;;;;5032406;28;20492;-74
2023/04/12 07:14:30;;;;;;;0.80;0.70;;;22.40;51.50;;;;;;5029515;28;20443;-74
2023/04/12 07:16:58;;;;;;;0.80;0.70;;;22.40;51.50;;;;;;5032928;28;20451;-74
2023/04/12 07:19:28;;;;;;;0.80;0.80;;;22.40;51.50;;;;;;5031697;28;20546;-75
2023/04/12 07:21:56;;;;;;;0.80;0.80;;;22.40;51.50;;;;;;5032403;28;20580;-75
2023/04/12 07:24:25;;;;;;;0.87;0.87;;;22.40;51.50;;;;;;5032574;28;20456;-75
2023/04/12 07:26:53;;;;;;;0.70;0.70;;;22.40;51.50;;;;;;5032569;28;20452;-74
2023/04/12 07:29:22;;;;;;;0.87;0.87;;;22.40;51.50;;;;;;5031384;28;20455;-74
2023/04/12 07:31:51;;;;;;;0.83;0.83;;;22.40;51.50;;;;;;5030459;28;20542;-74
2023/04/12 07:34:19;;;;;;;0.90;0.90;;;22.40;51.50;;;;;;5031886;28;20457;-74
2023/04/12 07:36:48;;;;;;;0.87;0.87;;;22.40;51.50;;;;;;5032570;28;20829;-74
2023/04/12 07:39:16;;;;;;;0.73;0.73;;;22.40;51.50;;;;;;5030337;28;20452;-74
2023/04/12 07:41:45;;;;;;;0.70;0.70;;;22.40;51.50;;;;;;5021874;28;20483;-77
2023/04/12 07:44:13;;;;;;;1.10;0.90;;;22.40;51.50;;;;;;5030319;28;20474;-76
2023/04/12 07:46:41;;;;;;;0.80;0.80;;;22.40;51.40;;;;;;4999726;28;20873;-74
2023/04/12 07:49:11;;;;;;;0.80;0.70;;;22.40;51.50;;;;;;5031838;28;21000;-74
2023/04/12 07:51:41;;;;;;;0.70;0.70;;;22.40;51.40;;;;;;5032251;28;20537;-74
2023/04/12 07:54:09;;;;;;;0.73;0.73;;;22.40;51.50;;;;;;5025870;28;20443;-74
2023/04/12 07:56:37;;;;;;;0.90;0.90;;;22.50;51.40;;;;;;5027540;28;20462;-74
2023/04/12 07:59:05;;;;;;;0.70;0.70;;;22.50;51.50;;;;;;5031458;28;20539;-74
2023/04/12 08:01:33;;;;;;;0.80;0.73;;;22.50;51.50;;;;;;5029220;28;20471;-74
2023/04/12 08:04:01;;;;;;;1.07;0.70;;;22.50;51.50;;;;;;5031543;28;20451;-74
2023/04/12 08:06:32;;;;;;;0.70;0.70;;;22.50;51.50;;;;;;5032147;28;20458;-74
2023/04/12 08:09:01;;;;;;;0.80;0.70;;;22.50;51.50;;;;;;5023654;28;20456;-74
2023/04/12 08:11:29;;;;;;;0.80;0.80;;;22.50;51.40;;;;;;5031632;28;20449;-74
2023/04/12 08:13:57;;;;;;;0.60;0.60;;;22.50;51.40;;;;;;5030142;28;20516;-74
2023/04/12 08:16:26;;;;;;;0.60;0.60;;;22.60;51.40;;;;;;5029150;28;20464;-74
2023/04/12 08:18:55;;;;;;;0.60;0.60;;;22.60;51.40;;;;;;5031249;28;20456;-74
2023/04/12 08:21:23;;;;;;;0.90;0.90;;;22.60;51.30;;;;;;5032074;28;20455;-74
2023/04/12 08:23:52;;;;;;;1.53;0.90;;;22.60;51.20;;;;;;5030813;28;20533;-74
2023/04/12 08:26:20;;;;;;;0.70;0.70;;;22.60;51.20;;;;;;5022352;28;20474;-74
2023/04/12 08:28:48;;;;;;;0.73;0.73;;;22.60;51.10;;;;;;5022470;28;20461;-74
2023/04/12 08:31:17;;;;;;;0.77;0.77;;;22.70;51.10;;;;;;5023655;28;20544;-77
2023/04/12 08:33:45;;;;;;;0.70;0.60;;;22.60;51.10;;;;;;5029477;28;20462;-75
2023/04/12 08:36:13;;;;;;;0.87;0.87;;;22.60;51.10;;;;;;5030443;28;21176;-74
2023/04/12 08:38:41;;;;;;;0.90;0.80;;;22.60;51.10;;;;;;5030783;28;20451;-74
2023/04/12 08:41:15;;;;;;;0.80;0.80;;;22.60;51.10;;;;;;5031266;28;20444;-74
2023/04/12 08:43:46;;;;;;;0.60;0.60;;;22.60;51.10;;;;;;5030736;28;20574;-77
2023/04/12 08:46:15;;;;;;;0.70;0.70;;;22.60;51.10;;;;;;5031104;28;20456;-77
2023/04/12 08:48:46;;;;;;;1.00;0.90;;;22.60;51.10;;;;;;5029397;28;20561;-80
2023/04/12 08:51:15;;;;;;;0.83;0.83;;;22.60;51.20;;;;;;5013867;28;20527;-77
2023/04/12 08:53:44;;;;;;;0.70;0.70;;;22.60;51.20;;;;;;5030202;28;20965;-77
2023/04/12 08:56:15;;;;;;;0.60;0.60;;;22.60;51.30;;;;;;5031216;28;20545;-74
2023/04/12 08:58:47;;;;;;;0.77;0.60;;;22.60;51.30;;;;;;5029892;28;20485;-74
2023/04/12 09:01:17;;;;;;;0.80;0.80;;;22.60;51.30;;;;;;5030770;28;20493;-74
2023/04/12 09:03:46;;;;;;;0.60;0.57;;;22.60;51.30;;;;;;5029957;28;20472;-76
2023/04/12 09:06:14;;;;;;;0.60;0.60;;;22.60;51.30;;;;;;5030764;28;20601;-75
2023/04/12 09:08:53;;;;;;;0.70;0.63;;;22.60;51.30;;;;;;5023124;28;20522;-74
2023/04/12 09:11:24;;;;;;;0.67;0.67;;;22.60;51.20;;;;;;5027574;28;20814;-74
2023/04/12 09:13:54;;;;;;;0.80;0.80;;;22.60;51.20;;;;;;5031328;28;20458;-75
2023/04/12 09:16:35;;;;;;;0.80;0.80;;;22.60;51.20;;;;;;5034788;28;20530;-74
2023/04/12 09:19:04;;;;;;;0.67;0.67;;;22.60;51.20;;;;;;5021624;28;20465;-74
2023/04/12 09:21:33;;;;;;;0.50;0.50;;;22.60;51.20;;;;;;5034810;28;20960;-75
2023/04/12 09:24:08;;;;;;;0.50;0.50;;;22.60;51.20;;;;;;5034015;28;20497;-74
2023/04/12 09:26:41;;;;;;;0.60;0.60;;;22.60;51.20;;;;;;5035274;28;20961;-77
2023/04/12 09:29:24;;;;;;;0.70;0.70;;;22.70;51.20;;;;;;5033596;28;20465;-74
2023/04/12 09:31:56;;;;;;;0.60;0.60;;;22.70;51.20;;;;;;5034838;28;20483;-75
2023/04/12 09:34:25;;;;;;;1.10;1.00;;;22.70;51.20;;;;;;5032868;28;20889;-74
2023/04/12 09:36:55;;;;;;;0.60;0.60;;;22.70;51.20;;;;;;5020398;28;20458;-75
2023/04/12 09:39:32;;;;;;;0.80;0.57;;;22.70;51.20;;;;;;5034253;28;20467;-74
2023/04/12 09:42:06;;;;;;;0.80;0.80;;;22.70;51.30;;;;;;5032585;28;20954;-74
2023/04/12 09:44:53;;;;;;;0.60;0.60;;;22.70;51.20;;;;;;5033307;28;20447;-76
2023/04/12 09:47:23;;;;;;;0.67;0.63;;;22.70;51.20;;;;;;5034071;28;20542;-76
2023/04/12 09:49:52;;;;;;;0.80;0.73;;;22.80;51.20;;;;;;5034447;28;20466;-74
2023/04/12 09:52:20;;;;;;;0.67;0.67;;;22.80;51.20;;;;;;5034344;28;20483;-75
2023/04/12 09:54:48;;;;;;;0.60;0.60;;;22.80;51.20;;;;;;5015806;28;20477;-74
2023/04/12 09:57:19;;;;;;;0.60;0.60;;;22.80;51.10;;;;;;5034332;28;20863;-74
2023/04/12 09:59:50;;;;;;;0.60;0.50;;;22.80;51.10;;;;;;5033176;28;20448;-75
2023/04/12 10:02:19;;;;;;;0.70;0.70;;;22.80;51.10;;;;;;5034043;28;20845;-77
2023/04/12 10:04:48;;;;;;;0.73;0.70;;;22.80;51.10;;;;;;5034084;28;20452;-76
2023/04/12 10:07:18;;;;;;;0.60;0.60;;;22.80;51.00;;;;;;5033639;28;20444;-74
2023/04/12 10:09:47;;;;;;;0.60;0.60;;;22.90;51.00;;;;;;5033547;28;20483;-74
2023/04/12 10:12:17;;;;;;;0.97;0.83;;;22.90;50.90;;;;;;5030596;28;20468;-74
2023/04/12 10:14:47;;;;;;;0.73;0.73;;;22.90;50.90;;;;;;5033034;28;20447;-74
2023/04/12 10:17:17;;;;;;;0.87;0.87;;;22.90;50.90;;;;;;5015981;28;20967;-74
2023/04/12 10:19:46;;;;;;;0.57;0.53;;;22.90;50.90;;;;;;5033627;28;20486;-75
2023/04/12 10:22:17;;;;;;;1.03;0.80;;;22.90;50.90;;;;;;5033655;28;20478;-75
2023/04/12 10:24:45;;;;;;;1.00;0.70;;;22.80;51.00;;;;;;5032792;28;20452;-76
2023/04/12 10:27:14;;;;;;;0.80;0.80;;;22.80;51.00;;;;;;5033796;28;20947;-75
2023/04/12 10:29:43;;;;;;;0.80;0.80;;;22.80;51.00;;;;;;5032292;28;20531;-75
2023/04/12 10:32:22;;;;;;;1.17;1.13;;;22.80;51.00;;;;;;5030791;28;20494;-74
2023/04/12 10:34:56;;;;;;;1.23;1.07;;;22.80;51.00;;;;;;5015541;28;20470;-78
2023/04/12 10:37:57;;;;;;;2.00;0.90;;;22.80;51.00;;;;;;5029660;28;20542;-77
2023/04/12 10:40:25;;;;;;;0.60;0.60;;;22.80;51.00;;;;;;5028753;28;20466;-80
2023/04/12 10:43:25;;;;;;;0.70;0.70;;;22.80;51.10;;;;;;5015132;28;20479;-78
2023/04/12 10:45:54;;;;;;;0.63;0.63;;;22.70;51.10;;;;;;5033451;28;20502;-76
2023/04/12 10:48:30;;;;;;;0.57;0.57;;;22.80;51.10;;;;;;5033546;28;20491;-75
2023/04/12 10:51:22;;;;;;;0.70;0.70;;;22.70;51.10;;;;;;5033415;28;20487;-75
2023/04/12 10:53:51;;;;;;;0.60;0.60;;;22.70;51.20;;;;;;5031594;28;20452;-75
2023/04/12 10:56:39;;;;;;;0.73;0.73;;;22.70;51.20;;;;;;5013313;28;20595;-76
2023/04/12 10:59:11;;;;;;;0.70;0.70;;;22.70;51.20;;;;;;5013502;28;20960;-75
2023/04/12 11:02:10;;;;;;;0.60;0.60;;;22.70;51.20;;;;;;5015609;28;20459;-75
2023/04/12 11:05:07;;;;;;;0.80;0.80;;;22.70;51.20;;;;;;5014281;28;20478;-75
2023/04/12 11:08:12;;;;;;;1.23;0.60;;;22.80;51.20;;;;;;4951901;28;20545;-75
2023/04/12 11:10:52;;;;;;;0.83;0.63;;;22.80;51.20;;;;;;5023979;28;20503;-75
2023/04/12 11:13:30;;;;;;;1.10;0.83;;;22.80;51.20;;;;;;5011561;28;20559;-76
2023/04/12 11:16:01;;;;;;;0.70;0.70;;;22.80;51.20;;;;;;5032574;28;20486;-77
2023/04/12 11:18:34;;;;;;;0.67;0.67;;;22.80;51.20;;;;;;5015017;28;20842;-75
2023/04/12 11:21:03;;;;;;;0.60;0.60;;;22.90;51.20;;;;;;5032929;28;20903;-74
2023/04/12 11:23:32;;;;;;;0.50;0.50;;;22.90;51.20;;;;;;5032412;28;21036;-75
2023/04/12 11:26:02;;;;;;;0.77;0.77;;;22.90;51.20;;;;;;5032922;28;20990;-74
2023/04/12 11:28:30;;;;;;;0.50;0.50;;;23.00;51.30;;;;;;5031731;28;20448;-74
2023/04/12 11:31:04;;;;;;;1.37;0.77;;;23.00;51.40;;;;;;5032251;28;20452;-75
2023/04/12 11:33:35;;;;;;;0.80;0.80;;;23.00;51.00;;;;;;5031935;28;20480;-78
2023/04/12 11:36:05;;;;;;;0.53;0.53;;;23.10;51.00;;;;;;5032047;28;20452;-78
2023/04/12 11:38:35;;;;;;;0.70;0.60;;;23.10;51.10;;;;;;5030311;28;20463;-75
2023/04/12 11:41:04;;;;;;;0.50;0.50;;;23.10;51.10;;;;;;5031665;28;20463;-76
2023/04/12 11:43:33;;;;;;;0.70;0.70;;;23.10;51.00;;;;;;5031666;28;20560;-74
2023/04/12 11:46:02;;;;;;;1.23;0.93;;;23.10;50.90;;;;;;5030744;28;20448;-80
2023/04/12 11:48:30;;;;;;;0.63;0.60;;;23.10;51.10;;;;;;5030961;28;20513;-75
2023/04/12 11:51:00;;;;;;;1.03;0.93;;;23.00;51.00;;;;;;5032122;28;20524;-79
2023/04/12 11:53:39;;;;;;;0.60;0.60;;;23.10;50.90;;;;;;5031530;28;20987;-77
2023/04/12 11:56:10;;;;;;;0.63;0.60;;;23.00;51.10;;;;;;5032448;28;20459;-75
2023/04/12 11:58:38;;;;;;;0.70;0.50;;;23.00;50.90;;;;;;5030854;28;20544;-76
2023/04/12 12:01:07;;;;;;;0.90;0.80;;;23.10;50.90;;;;;;5031726;28;20454;-75
2023/04/12 12:03:36;;;;;;;0.70;0.70;;;23.10;50.90;;;;;;5031749;28;20480;-76
2023/04/12 12:06:07;;;;;;;0.60;0.60;;;23.10;50.90;;;;;;5031787;28;20440;-76
2023/04/12 12:08:37;;;;;;;0.67;0.67;;;23.20;51.40;;;;;;5013776;28;20868;-74
2023/04/12 12:11:05;;;;;;;0.60;0.60;;;23.20;51.60;;;;;;5012016;28;20513;-75
2023/04/12 12:13:45;;;;;;;0.80;0.70;;;23.30;51.10;;;;;;5030507;28;20476;-75
2023/04/12 12:16:14;;;;;;;0.60;0.60;;;23.30;51.40;;;;;;5029359;28;20548;-75
2023/04/12 12:18:42;;;;;;;0.83;0.83;;;23.50;51.00;;;;;;5031464;28;20505;-75
2023/04/12 12:21:14;;;;;;;1.20;0.80;;;23.60;50.80;;;;;;5031423;28;20541;-75
2023/04/12 12:23:43;;;;;;;0.70;0.70;;;23.70;50.90;;;;;;5031203;28;20482;-75
2023/04/12 12:26:20;;;;;;;0.70;0.70;;;23.70;50.60;;;;;;5031741;28;21345;-75
2023/04/12 12:28:52;;;;;;;0.60;0.60;;;23.70;50.80;;;;;;5030646;28;20460;-75
2023/04/12 12:31:22;;;;;;;0.50;0.50;;;23.60;50.80;;;;;;5031856;28;20436;-75
2023/04/12 12:33:55;;;;;;;0.90;0.60;;;23.60;50.80;;;;;;5024593;28;20872;-75
2023/04/12 12:36:32;;;;;;;0.70;0.70;;;23.50;50.80;;;;;;5023560;28;20441;-75
2023/04/12 12:39:06;;;;;;;0.97;0.60;;;23.50;50.70;;;;;;5031453;28;20458;-75
2023/04/12 12:41:35;;;;;;;2.00;0.90;;;23.40;50.80;;;;;;5030152;28;20940;-75
2023/04/12 12:44:03;;;;;;;1.63;0.70;;;23.40;50.90;;;;;;5012512;28;20810;-75
2023/04/12 12:46:31;;;;;;;0.60;0.60;;;23.30;51.20;;;;;;5029175;28;20500;-79
2023/04/12 12:49:19;;;;;;;0.50;0.50;;;23.40;51.40;;;;;;5022654;28;20578;-75
2023/04/12 12:51:50;;;;;;;0.90;0.90;;;23.50;51.20;;;;;;5030958;28;20483;-75
2023/04/12 12:54:19;;;;;;;0.60;0.60;;;23.50;51.20;;;;;;5024749;28;21004;-78
2023/04/12 12:57:06;;;;;;;0.70;0.70;;;23.70;51.10;;;;;;5030983;28;20452;-74
2023/04/12 12:59:35;;;;;;;0.80;0.80;;;23.80;50.70;;;;;;5030074;28;20444;-78
2023/04/12 13:02:04;;;;;;;0.60;0.60;;;23.90;50.50;;;;;;5029607;28;20453;-75
2023/04/12 13:04:32;;;;;;;0.70;0.70;;;24.10;50.40;;;;;;5023439;28;20469;-75
2023/04/12 13:07:02;;;;;;;0.60;0.60;;;24.10;50.30;;;;;;5030842;28;20463;-75
2023/04/12 13:09:31;;;;;;;0.60;0.60;;;24.20;50.20;;;;;;5031090;28;20444;-75